Time;durP1;ratioP1;P1;durP2;ratioP2;P2;SDS_P1;SDS_P2;PMS_P1;PMS_P2;Temp;Humidity;BMP_temperature;BMP_pressure;BME280_temperature;BME280_humidity;BME280_pressure;Samples;Min_cycle;Max_cycle;Signal;HPM_P1;HPM_P2
2023/10/04 00:01:38;;;;;;;4.73;0.80;;;13.60;83.60;;;;;;5017021;28;20084;-74
2023/10/04 00:04:05;;;;;;;6.38;0.88;;;13.60;83.80;;;;;;5027383;28;20277;-75
2023/10/04 00:06:32;;;;;;;7.05;1.05;;;13.60;83.70;;;;;;5003504;28;20797;-74
2023/10/04 00:08:59;;;;;;;6.28;1.20;;;13.60;83.80;;;;;;5007170;28;20464;-75
2023/10/04 00:11:27;;;;;;;4.63;0.90;;;13.60;83.90;;;;;;4991301;28;20046;-74
2023/10/04 00:13:55;;;;;;;5.30;0.90;;;13.60;84.00;;;;;;5008877;28;20058;-74
2023/10/04 00:16:23;;;;;;;6.00;0.98;;;13.60;84.00;;;;;;5014989;28;20260;-75
2023/10/04 00:18:51;;;;;;;6.40;0.75;;;13.60;84.00;;;;;;5010230;28;21062;-75
2023/10/04 00:21:18;;;;;;;4.30;0.80;;;13.60;84.00;;;;;;5028405;28;20120;-75
2023/10/04 00:23:45;;;;;;;7.90;0.93;;;13.60;84.00;;;;;;5026317;28;20057;-75
2023/10/04 00:26:12;;;;;;;5.27;0.90;;;13.60;84.00;;;;;;5006934;28;20050;-74
2023/10/04 00:28:41;;;;;;;5.95;1.27;;;13.60;84.00;;;;;;4990450;28;20572;-75
2023/10/04 00:31:08;;;;;;;5.50;1.02;;;13.60;84.00;;;;;;4990831;28;20133;-74
2023/10/04 00:33:38;;;;;;;8.13;1.33;;;13.60;84.00;;;;;;5007540;28;20430;-75
2023/10/04 00:36:06;;;;;;;7.00;0.77;;;13.60;84.00;;;;;;5013969;28;20492;-74
2023/10/04 00:38:33;;;;;;;5.97;1.07;;;13.60;84.00;;;;;;5026323;28;20433;-74
2023/10/04 00:41:00;;;;;;;7.53;0.98;;;13.60;84.00;;;;;;5010193;28;20355;-74
2023/10/04 00:43:27;;;;;;;5.30;1.10;;;13.60;84.00;;;;;;5010135;28;20042;-74
2023/10/04 00:45:54;;;;;;;5.30;1.13;;;13.60;84.10;;;;;;5010509;28;20050;-74
2023/10/04 00:48:25;;;;;;;6.30;1.20;;;13.60;84.00;;;;;;4993434;28;20109;-75
2023/10/04 00:50:52;;;;;;;3.97;0.90;;;13.60;84.10;;;;;;5020177;28;20586;-75
2023/10/04 00:53:24;;;;;;;4.68;0.80;;;13.60;84.00;;;;;;5006858;28;20270;-74
2023/10/04 00:55:56;;;;;;;4.93;1.20;;;13.60;84.10;;;;;;4995307;28;20050;-74
2023/10/04 00:58:25;;;;;;;6.35;1.17;;;13.50;84.00;;;;;;5009698;28;20046;-75
2023/10/04 01:00:53;;;;;;;5.50;1.08;;;13.50;84.00;;;;;;5002246;28;20054;-74
2023/10/04 01:03:22;;;;;;;6.17;1.00;;;13.50;84.10;;;;;;4974372;28;20045;-74
2023/10/04 01:05:51;;;;;;;9.82;1.45;;;13.50;84.10;;;;;;4993046;28;20995;-75
2023/10/04 01:08:23;;;;;;;5.20;0.80;;;13.50;84.00;;;;;;5002782;28;20077;-74
2023/10/04 01:10:51;;;;;;;6.82;1.00;;;13.50;84.20;;;;;;5005158;28;20062;-74
2023/10/04 01:13:21;;;;;;;7.90;1.20;;;13.50;84.30;;;;;;5006243;28;20061;-75
2023/10/04 01:15:49;;;;;;;5.87;1.00;;;13.50;84.50;;;;;;4988948;28;20061;-74
2023/10/04 01:18:17;;;;;;;9.20;1.15;;;13.50;84.50;;;;;;4979322;28;20249;-75
2023/10/04 01:20:45;;;;;;;5.20;1.10;;;13.50;84.60;;;;;;5026460;28;20104;-74
2023/10/04 01:23:14;;;;;;;7.35;0.93;;;13.50;84.60;;;;;;4991783;28;20054;-74
2023/10/04 01:25:43;;;;;;;7.28;1.13;;;13.50;84.70;;;;;;5004779;28;20508;-75
2023/10/04 01:28:13;;;;;;;4.97;0.90;;;13.50;84.70;;;;;;4988433;28;20627;-74
2023/10/04 01:30:40;;;;;;;9.02;1.40;;;13.50;84.70;;;;;;4988514;28;20985;-74
2023/10/04 01:33:10;;;;;;;7.20;1.23;;;13.50;84.60;;;;;;4988385;28;20054;-74
2023/10/04 01:35:37;;;;;;;6.50;0.95;;;13.50;84.60;;;;;;5005441;28;20049;-74
2023/10/04 01:38:06;;;;;;;9.27;1.33;;;13.50;84.50;;;;;;5008409;28;20050;-74
2023/10/04 01:40:35;;;;;;;6.83;0.90;;;13.50;84.40;;;;;;4991575;28;20145;-74
2023/10/04 01:43:09;;;;;;;7.20;1.00;;;13.50;84.20;;;;;;5007729;28;20323;-75
2023/10/04 01:45:36;;;;;;;5.60;1.00;;;13.50;84.20;;;;;;4972715;28;20057;-75
2023/10/04 01:48:05;;;;;;;6.75;1.33;;;13.50;84.20;;;;;;5010155;28;20054;-74
2023/10/04 01:50:32;;;;;;;4.88;0.70;;;13.50;84.20;;;;;;5011504;28;20054;-74
2023/10/04 01:52:59;;;;;;;6.93;0.80;;;13.50;84.30;;;;;;5007969;28;20046;-74
2023/10/04 01:55:26;;;;;;;6.25;0.90;;;13.50;84.30;;;;;;5023814;28;20270;-74
2023/10/04 01:57:55;;;;;;;7.00;1.05;;;13.50;84.40;;;;;;4991940;28;20046;-75
2023/10/04 02:00:23;;;;;;;7.40;1.10;;;13.50;84.40;;;;;;5009219;28;20058;-74
2023/10/04 02:02:51;;;;;;;6.50;1.30;;;13.50;84.40;;;;;;5024349;28;20133;-75
2023/10/04 02:05:26;;;;;;;6.47;1.13;;;13.50;84.40;;;;;;4957819;28;1059597;-75
2023/10/04 02:07:54;;;;;;;5.18;1.00;;;13.50;84.50;;;;;;5010864;28;20519;-75
2023/10/04 02:10:21;;;;;;;8.80;1.00;;;13.50;84.50;;;;;;5011105;28;20085;-74
2023/10/04 02:12:50;;;;;;;6.30;0.90;;;13.50;84.50;;;;;;4992818;28;20262;-74
2023/10/04 02:15:19;;;;;;;7.07;0.93;;;13.50;84.50;;;;;;5005991;28;20061;-74
2023/10/04 02:17:46;;;;;;;6.93;1.20;;;13.50;84.60;;;;;;5011082;28;20046;-74
2023/10/04 02:20:21;;;;;;;8.77;1.17;;;13.50;84.60;;;;;;5006988;28;20065;-74
2023/10/04 02:22:48;;;;;;;8.63;1.23;;;13.50;84.80;;;;;;5030153;28;20050;-75
2023/10/04 02:25:17;;;;;;;10.00;1.73;;;13.50;84.80;;;;;;4997843;28;20270;-75
2023/10/04 02:27:45;;;;;;;8.80;1.38;;;13.60;84.90;;;;;;5013613;28;20082;-75
2023/10/04 02:30:21;;;;;;;7.85;1.15;;;13.60;85.00;;;;;;5007155;28;20056;-74
2023/10/04 02:32:51;;;;;;;6.22;1.20;;;13.60;85.10;;;;;;5029830;28;20057;-74
2023/10/04 02:35:26;;;;;;;5.90;1.03;;;13.60;85.20;;;;;;5013651;28;20046;-74
2023/10/04 02:37:59;;;;;;;5.97;0.82;;;13.60;85.20;;;;;;5002994;28;20302;-74
2023/10/04 02:40:32;;;;;;;9.68;1.10;;;13.60;85.40;;;;;;4992014;28;20073;-74
2023/10/04 02:43:00;;;;;;;5.75;1.00;;;13.60;85.20;;;;;;5008566;28;20058;-74
2023/10/04 02:45:29;;;;;;;5.60;1.33;;;13.60;85.20;;;;;;5008722;28;20077;-74
2023/10/04 02:47:57;;;;;;;8.63;1.43;;;13.60;85.20;;;;;;4992068;28;20066;-74
2023/10/04 02:50:24;;;;;;;6.60;1.00;;;13.60;85.30;;;;;;5020377;28;20285;-74
2023/10/04 02:52:52;;;;;;;6.85;0.98;;;13.60;85.20;;;;;;4992229;28;20582;-74
2023/10/04 02:55:21;;;;;;;7.18;1.58;;;13.60;85.10;;;;;;4991546;28;20460;-74
2023/10/04 02:57:51;;;;;;;6.03;1.20;;;13.60;85.20;;;;;;4990666;28;20057;-75
2023/10/04 03:00:20;;;;;;;7.50;1.10;;;13.50;85.10;;;;;;5001972;28;20054;-74
2023/10/04 03:02:52;;;;;;;6.35;1.13;;;13.50;85.20;;;;;;5011186;28;20256;-74
2023/10/04 03:05:24;;;;;;;9.45;1.83;;;13.50;85.10;;;;;;4997417;28;20051;-75
2023/10/04 03:07:53;;;;;;;6.80;1.10;;;13.50;85.10;;;;;;4992042;28;20059;-75
2023/10/04 03:10:25;;;;;;;7.90;1.13;;;13.50;85.20;;;;;;5022031;28;20057;-74
2023/10/04 03:12:59;;;;;;;8.07;1.30;;;13.50;85.10;;;;;;4978090;28;20500;-75
2023/10/04 03:15:27;;;;;;;6.20;0.98;;;13.50;85.20;;;;;;5011584;28;20897;-74
2023/10/04 03:17:56;;;;;;;7.68;1.27;;;13.50;85.10;;;;;;5011454;28;20543;-74
2023/10/04 03:20:28;;;;;;;8.48;1.30;;;13.50;85.00;;;;;;5013667;28;20058;-74
2023/10/04 03:23:00;;;;;;;8.52;1.27;;;13.50;85.00;;;;;;5007317;28;20324;-75
2023/10/04 03:25:28;;;;;;;7.67;1.23;;;13.50;85.00;;;;;;4993585;28;20050;-74
2023/10/04 03:27:57;;;;;;;6.97;1.15;;;13.50;84.80;;;;;;4991902;28;20264;-74
2023/10/04 03:30:25;;;;;;;7.28;1.30;;;13.50;84.70;;;;;;5005339;28;20104;-74
2023/10/04 03:32:52;;;;;;;7.60;1.10;;;13.50;84.60;;;;;;4994767;28;20432;-74
2023/10/04 03:35:22;;;;;;;8.32;1.30;;;13.50;84.50;;;;;;5013622;28;20053;-75
2023/10/04 03:37:54;;;;;;;8.93;1.30;;;13.40;84.40;;;;;;5003025;28;20046;-74
2023/10/04 03:40:24;;;;;;;6.20;1.20;;;13.40;84.40;;;;;;5026850;28;20922;-74
2023/10/04 03:42:51;;;;;;;8.73;1.25;;;13.30;84.40;;;;;;4994754;28;20133;-74
2023/10/04 03:45:20;;;;;;;5.97;1.30;;;13.30;84.40;;;;;;5010352;28;20046;-74
2023/10/04 03:47:50;;;;;;;8.63;1.55;;;13.30;84.50;;;;;;5030098;28;20049;-74
2023/10/04 03:50:19;;;;;;;6.70;1.30;;;13.30;84.50;;;;;;5023405;28;20066;-74
2023/10/04 03:52:48;;;;;;;6.40;1.20;;;13.30;84.40;;;;;;5019384;28;20339;-75
2023/10/04 03:55:18;;;;;;;6.40;1.20;;;13.30;84.50;;;;;;5025614;28;20046;-74
2023/10/04 03:57:45;;;;;;;6.93;1.63;;;13.30;84.50;;;;;;5010706;28;20046;-75
2023/10/04 04:00:17;;;;;;;7.88;1.30;;;13.30;84.50;;;;;;5028561;28;20064;-75
2023/10/04 04:02:45;;;;;;;7.70;1.60;;;13.30;84.50;;;;;;5027398;28;20050;-74
2023/10/04 04:05:14;;;;;;;6.88;1.45;;;13.30;84.40;;;;;;5023311;28;20291;-75
2023/10/04 04:07:41;;;;;;;7.72;1.02;;;13.30;84.30;;;;;;5020856;28;20057;-74
2023/10/04 04:10:11;;;;;;;6.47;1.20;;;13.30;84.40;;;;;;4998967;28;20052;-74
2023/10/04 04:12:40;;;;;;;6.25;1.45;;;13.30;84.40;;;;;;4996032;28;20137;-75
2023/10/04 04:15:10;;;;;;;7.23;1.20;;;13.30;84.40;;;;;;4996629;28;20493;-75
2023/10/04 04:17:39;;;;;;;7.05;1.25;;;13.30;84.30;;;;;;5006348;28;20286;-74
2023/10/04 04:20:14;;;;;;;8.93;1.42;;;13.30;84.40;;;;;;5000162;28;20137;-74
2023/10/04 04:22:46;;;;;;;9.30;1.60;;;13.30;84.40;;;;;;4996829;28;20058;-75
2023/10/04 04:25:15;;;;;;;6.68;1.23;;;13.30;84.40;;;;;;5010106;28;20124;-75
2023/10/04 04:27:45;;;;;;;6.93;1.60;;;13.20;84.40;;;;;;4990395;28;20051;-74
2023/10/04 04:30:16;;;;;;;6.32;1.38;;;13.30;84.50;;;;;;4990455;28;20271;-74
2023/10/04 04:32:47;;;;;;;6.72;1.42;;;13.20;84.50;;;;;;4989660;28;20052;-74
2023/10/04 04:35:22;;;;;;;8.68;1.33;;;13.20;84.50;;;;;;5018384;28;20297;-74
2023/10/04 04:37:54;;;;;;;5.88;1.33;;;13.20;84.70;;;;;;4974294;28;20050;-74
2023/10/04 04:40:26;;;;;;;7.97;1.57;;;13.10;84.70;;;;;;4982517;28;20501;-74
2023/10/04 04:43:01;;;;;;;6.88;1.40;;;13.10;84.80;;;;;;4990669;28;20259;-74
2023/10/04 04:45:29;;;;;;;6.50;1.40;;;13.10;84.80;;;;;;5015156;28;20054;-74
2023/10/04 04:47:57;;;;;;;6.13;1.40;;;13.10;84.90;;;;;;5000858;28;20120;-74
2023/10/04 04:50:25;;;;;;;8.80;1.25;;;13.10;85.00;;;;;;4999517;28;20052;-74
2023/10/04 04:52:53;;;;;;;9.93;1.43;;;13.10;85.00;;;;;;4974205;28;21018;-75
2023/10/04 04:55:26;;;;;;;8.68;1.70;;;13.10;85.10;;;;;;4999760;28;20321;-74
2023/10/04 04:57:56;;;;;;;13.55;2.08;;;13.10;85.30;;;;;;5005434;28;20128;-74
2023/10/04 05:00:33;;;;;;;8.13;2.00;;;13.10;85.50;;;;;;4999211;28;20468;-75
2023/10/04 05:03:01;;;;;;;8.13;1.38;;;13.10;85.50;;;;;;4993342;28;20042;-74
2023/10/04 05:05:29;;;;;;;10.23;1.70;;;13.10;85.50;;;;;;5016058;28;20077;-74
2023/10/04 05:07:56;;;;;;;7.85;1.40;;;13.10;85.60;;;;;;4989908;28;20263;-74
2023/10/04 05:10:25;;;;;;;6.43;1.52;;;13.10;85.50;;;;;;5007041;28;20104;-75
2023/10/04 05:12:52;;;;;;;6.85;1.63;;;13.10;85.40;;;;;;5018162;28;20061;-74
2023/10/04 05:15:32;;;;;;;8.45;1.40;;;13.10;85.50;;;;;;5000023;28;20080;-74
2023/10/04 05:18:00;;;;;;;6.30;1.23;;;13.10;85.40;;;;;;5018310;28;20054;-74
2023/10/04 05:20:30;;;;;;;8.23;1.80;;;13.10;85.40;;;;;;5014597;28;20290;-74
2023/10/04 05:22:58;;;;;;;10.05;1.80;;;13.10;85.40;;;;;;5001050;28;20429;-74
2023/10/04 05:25:25;;;;;;;7.40;1.60;;;13.10;85.40;;;;;;5015510;28;20133;-74
2023/10/04 05:27:51;;;;;;;8.45;1.50;;;13.10;85.40;;;;;;5019336;28;20053;-73
2023/10/04 05:30:19;;;;;;;7.43;1.23;;;13.10;85.40;;;;;;5017016;28;20539;-74
2023/10/04 05:32:47;;;;;;;6.63;1.38;;;13.10;85.40;;;;;;5008677;28;20249;-74
2023/10/04 05:35:14;;;;;;;6.65;1.35;;;13.10;85.40;;;;;;5006084;28;20046;-74
2023/10/04 05:37:42;;;;;;;6.78;1.70;;;13.10;85.40;;;;;;5019628;28;20125;-75
2023/10/04 05:40:16;;;;;;;5.63;1.45;;;13.10;85.40;;;;;;5016956;28;20051;-74
2023/10/04 05:42:44;;;;;;;8.27;1.70;;;13.10;85.40;;;;;;5018731;28;20054;-74
2023/10/04 05:45:12;;;;;;;9.70;2.28;;;13.10;85.50;;;;;;5020438;28;20722;-75
2023/10/04 05:47:39;;;;;;;9.60;1.60;;;13.10;85.50;;;;;;5021930;28;20043;-74
2023/10/04 05:50:10;;;;;;;10.57;1.50;;;13.10;85.50;;;;;;5004082;28;20054;-74
2023/10/04 05:52:37;;;;;;;7.63;1.67;;;13.10;85.60;;;;;;5006791;28;20072;-74
2023/10/04 05:55:05;;;;;;;6.27;1.60;;;13.10;85.70;;;;;;5003291;28;20054;-74
2023/10/04 05:57:33;;;;;;;7.10;1.80;;;13.10;85.80;;;;;;5018160;28;20288;-74
2023/10/04 05:59:59;;;;;;;8.35;1.40;;;13.10;85.80;;;;;;5005719;28;20056;-74
2023/10/04 06:02:27;;;;;;;6.95;1.50;;;13.10;85.80;;;;;;5012657;28;20519;-74
2023/10/04 06:04:54;;;;;;;9.48;1.75;;;13.10;85.80;;;;;;4998528;28;20576;-74
2023/10/04 06:07:23;;;;;;;8.67;1.53;;;13.10;86.00;;;;;;5019872;28;20524;-73
2023/10/04 06:09:50;;;;;;;7.75;1.80;;;13.10;86.10;;;;;;5015639;28;20385;-74
2023/10/04 06:12:17;;;;;;;8.50;1.75;;;13.10;86.10;;;;;;5019952;28;20046;-74
2023/10/04 06:14:44;;;;;;;9.00;1.50;;;13.10;86.10;;;;;;5007225;28;20512;-74
2023/10/04 06:17:11;;;;;;;8.57;2.08;;;13.10;86.10;;;;;;5007252;28;20554;-74
2023/10/04 06:19:40;;;;;;;6.93;1.50;;;13.10;86.00;;;;;;4998444;28;20050;-75
2023/10/04 06:22:07;;;;;;;6.57;1.45;;;13.10;86.20;;;;;;5017930;28;21373;-74
2023/10/04 06:24:35;;;;;;;8.00;1.90;;;13.10;86.20;;;;;;5003196;28;20050;-74
2023/10/04 06:27:02;;;;;;;8.32;1.55;;;13.10;86.20;;;;;;5005856;28;20592;-74
2023/10/04 06:29:29;;;;;;;9.02;1.92;;;13.10;86.30;;;;;;4998709;28;20516;-74
2023/10/04 06:31:56;;;;;;;12.93;1.90;;;13.10;86.40;;;;;;4986885;28;20054;-74
2023/10/04 06:34:23;;;;;;;8.07;2.10;;;13.10;86.40;;;;;;4987151;28;20331;-74
2023/10/04 06:36:50;;;;;;;9.13;1.80;;;13.10;86.40;;;;;;5002698;28;20050;-75
2023/10/04 06:39:17;;;;;;;9.93;1.90;;;13.10;86.30;;;;;;5004273;28;20640;-75
2023/10/04 06:41:46;;;;;;;10.77;2.10;;;13.10;86.40;;;;;;5004128;28;20509;-75
2023/10/04 06:44:12;;;;;;;9.50;2.17;;;13.10;86.30;;;;;;5020303;28;20045;-75
2023/10/04 06:46:39;;;;;;;8.07;1.70;;;13.10;86.40;;;;;;5018990;28;20266;-75
2023/10/04 06:49:06;;;;;;;9.15;1.83;;;13.10;86.40;;;;;;5006685;28;20496;-75
2023/10/04 06:51:33;;;;;;;11.77;2.15;;;13.10;86.50;;;;;;4999621;28;20150;-75
2023/10/04 06:54:05;;;;;;;8.38;2.20;;;13.10;86.70;;;;;;5016168;28;20161;-74
2023/10/04 06:56:31;;;;;;;8.87;2.10;;;13.20;86.60;;;;;;5014678;28;20616;-75
2023/10/04 06:59:00;;;;;;;8.85;2.10;;;13.20;86.60;;;;;;4998008;28;20355;-75
2023/10/04 07:01:27;;;;;;;10.25;2.30;;;13.20;86.50;;;;;;4989097;28;20102;-75
2023/10/04 07:03:53;;;;;;;8.82;1.75;;;13.20;86.50;;;;;;5008480;28;20043;-74
2023/10/04 07:06:20;;;;;;;9.90;1.70;;;13.20;86.60;;;;;;4990548;28;20046;-74
2023/10/04 07:08:48;;;;;;;8.80;1.70;;;13.20;86.60;;;;;;4999609;28;20065;-74
2023/10/04 07:11:15;;;;;;;9.15;2.25;;;13.30;86.50;;;;;;5007798;28;20269;-75
2023/10/04 07:13:43;;;;;;;7.95;1.90;;;13.30;86.50;;;;;;5021181;28;20072;-75
2023/10/04 07:16:11;;;;;;;8.52;2.30;;;13.30;86.50;;;;;;5003433;28;20568;-75
2023/10/04 07:18:38;;;;;;;13.15;2.25;;;13.30;86.70;;;;;;5017801;28;20106;-74
2023/10/04 07:21:06;;;;;;;8.77;2.00;;;13.30;86.60;;;;;;5013604;28;20237;-74
2023/10/04 07:23:32;;;;;;;9.75;1.90;;;13.30;86.60;;;;;;4994277;28;20262;-74
2023/10/04 07:25:59;;;;;;;7.93;2.10;;;13.30;86.50;;;;;;4999458;28;20046;-74
2023/10/04 07:28:26;;;;;;;11.20;2.20;;;13.30;86.50;;;;;;5010211;28;20085;-75
2023/10/04 07:30:54;;;;;;;7.50;1.88;;;13.30;86.50;;;;;;5018895;28;20069;-75
2023/10/04 07:33:22;;;;;;;8.67;1.97;;;13.30;86.30;;;;;;5015991;28;20444;-74
2023/10/04 07:35:49;;;;;;;6.93;1.83;;;13.30;86.30;;;;;;5014156;28;20838;-74
2023/10/04 07:38:16;;;;;;;9.73;2.10;;;13.30;86.40;;;;;;5007048;28;20045;-74
2023/10/04 07:40:44;;;;;;;7.55;1.88;;;13.30;86.40;;;;;;5018570;28;20555;-74
2023/10/04 07:43:10;;;;;;;6.80;1.83;;;13.30;86.20;;;;;;5016531;28;20061;-75
2023/10/04 07:45:38;;;;;;;8.60;2.30;;;13.40;86.50;;;;;;5018334;28;20116;-75
2023/10/04 07:48:06;;;;;;;10.60;2.30;;;13.50;86.50;;;;;;5005720;28;20276;-74
2023/10/04 07:50:35;;;;;;;8.88;1.92;;;13.50;86.30;;;;;;5001964;28;20520;-74
2023/10/04 07:53:04;;;;;;;9.98;2.28;;;13.50;86.10;;;;;;5020789;28;20050;-74
2023/10/04 07:55:33;;;;;;;9.50;2.63;;;13.50;86.10;;;;;;5016857;28;20521;-74
2023/10/04 07:58:03;;;;;;;8.53;2.40;;;13.50;86.30;;;;;;5004076;28;20057;-75
2023/10/04 08:00:31;;;;;;;10.75;2.50;;;13.60;86.20;;;;;;4997952;28;20254;-75
2023/10/04 08:02:58;;;;;;;12.20;2.63;;;13.60;86.20;;;;;;4998505;28;20058;-75
2023/10/04 08:05:26;;;;;;;8.15;1.90;;;13.60;86.30;;;;;;5011601;28;20049;-74
2023/10/04 08:07:56;;;;;;;12.15;2.30;;;13.70;86.10;;;;;;5004576;28;20168;-75
2023/10/04 08:10:25;;;;;;;11.20;2.70;;;13.70;86.10;;;;;;5006034;28;20587;-74
2023/10/04 08:12:54;;;;;;;9.35;2.15;;;13.80;86.20;;;;;;5019333;28;20293;-74
2023/10/04 08:15:23;;;;;;;7.82;1.73;;;13.90;86.20;;;;;;5020271;28;20050;-74
2023/10/04 08:17:51;;;;;;;6.15;1.63;;;13.90;86.20;;;;;;5005286;28;20050;-74
2023/10/04 08:20:19;;;;;;;10.90;2.03;;;13.90;86.20;;;;;;5017894;28;20058;-77
2023/10/04 08:22:46;;;;;;;11.10;2.10;;;14.00;85.90;;;;;;4986293;28;20065;-76
2023/10/04 08:25:17;;;;;;;10.18;2.30;;;14.10;85.60;;;;;;5008849;28;20878;-75
2023/10/04 08:27:44;;;;;;;8.90;2.30;;;14.10;85.70;;;;;;5017473;28;21477;-75
2023/10/04 08:30:13;;;;;;;9.95;2.40;;;14.20;85.30;;;;;;5015418;28;20058;-75
2023/10/04 08:32:41;;;;;;;8.40;2.15;;;14.20;85.20;;;;;;5011943;28;20054;-75
2023/10/04 08:35:21;;;;;;;10.17;2.00;;;14.30;85.10;;;;;;5025335;28;20056;-75
2023/10/04 08:37:48;;;;;;;10.85;2.42;;;14.30;84.80;;;;;;5021818;28;20294;-76
2023/10/04 08:40:18;;;;;;;12.38;2.42;;;14.40;85.00;;;;;;5005316;28;20058;-75
2023/10/04 08:42:45;;;;;;;10.32;2.05;;;14.40;84.80;;;;;;5016172;28;20058;-75
2023/10/04 08:45:13;;;;;;;10.00;2.33;;;14.50;84.70;;;;;;4998038;28;20130;-74
2023/10/04 08:47:40;;;;;;;10.47;1.77;;;14.50;84.80;;;;;;5017091;28;20050;-72
2023/10/04 08:50:14;;;;;;;9.15;1.98;;;14.60;84.60;;;;;;5011756;28;20329;-76
2023/10/04 08:52:43;;;;;;;9.10;1.70;;;14.70;84.00;;;;;;5017836;28;20050;-76
2023/10/04 08:55:16;;;;;;;10.52;2.42;;;14.70;84.10;;;;;;5014832;28;20571;-75
2023/10/04 08:57:45;;;;;;;11.73;2.10;;;14.80;84.10;;;;;;4997718;28;20050;-75
2023/10/04 09:00:14;;;;;;;10.07;2.50;;;14.80;83.90;;;;;;5014796;28;20105;-75
2023/10/04 09:02:45;;;;;;;10.50;2.50;;;14.90;83.90;;;;;;4992728;28;20258;-75
2023/10/04 09:05:14;;;;;;;8.02;1.90;;;14.90;83.70;;;;;;4998283;28;20505;-75
2023/10/04 09:07:43;;;;;;;12.30;2.47;;;15.00;83.60;;;;;;5015008;28;20060;-75
2023/10/04 09:10:15;;;;;;;9.43;2.10;;;15.00;82.90;;;;;;5014097;28;20599;-75
2023/10/04 09:12:43;;;;;;;8.67;2.13;;;15.00;82.90;;;;;;5008322;28;20050;-75
2023/10/04 09:15:13;;;;;;;7.80;2.03;;;15.10;82.90;;;;;;5023567;28;20775;-75
2023/10/04 09:17:46;;;;;;;11.50;2.85;;;15.20;82.60;;;;;;5016309;28;20049;-75
2023/10/04 09:20:15;;;;;;;10.45;2.13;;;15.20;81.90;;;;;;5005673;28;20054;-75
2023/10/04 09:22:44;;;;;;;9.65;1.45;;;15.30;81.50;;;;;;5017667;28;20057;-75
2023/10/04 09:25:11;;;;;;;7.80;2.10;;;15.30;81.50;;;;;;5017969;28;20061;-75
2023/10/04 09:27:41;;;;;;;10.10;1.65;;;15.30;81.10;;;;;;5016368;28;20408;-75
2023/10/04 09:30:25;;;;;;;9.55;2.58;;;15.30;81.00;;;;;;5004686;28;20480;-75
2023/10/04 09:32:54;;;;;;;8.75;1.80;;;15.40;81.00;;;;;;5014649;28;20491;-75
2023/10/04 09:35:23;;;;;;;10.55;2.40;;;15.40;80.70;;;;;;5014333;28;20085;-76
2023/10/04 09:37:50;;;;;;;8.57;1.63;;;15.50;80.40;;;;;;4994661;28;20053;-77
2023/10/04 09:40:18;;;;;;;7.20;2.28;;;15.60;79.30;;;;;;5015013;28;20737;-77
2023/10/04 09:42:46;;;;;;;6.63;1.65;;;15.60;79.40;;;;;;4998329;28;20608;-77
2023/10/04 09:45:14;;;;;;;11.18;2.35;;;15.60;79.60;;;;;;5016688;28;20225;-77
2023/10/04 09:47:43;;;;;;;13.57;2.72;;;15.60;79.70;;;;;;5005900;28;20585;-76
2023/10/04 09:50:12;;;;;;;13.73;2.53;;;15.70;79.60;;;;;;4996354;28;20501;-75
2023/10/04 09:52:39;;;;;;;7.20;1.73;;;15.70;79.70;;;;;;5003442;28;20254;-75
2023/10/04 09:55:11;;;;;;;11.85;2.83;;;15.80;79.40;;;;;;5000572;28;20125;-75
2023/10/04 09:57:42;;;;;;;9.45;2.50;;;15.80;79.40;;;;;;5012720;28;20137;-75
2023/10/04 10:00:17;;;;;;;9.02;1.75;;;15.80;79.00;;;;;;4993404;28;20046;-75
2023/10/04 10:02:48;;;;;;;8.10;2.53;;;15.80;78.40;;;;;;4999138;28;20061;-76
2023/10/04 10:05:26;;;;;;;9.45;2.15;;;15.90;78.30;;;;;;4999651;28;20946;-76
2023/10/04 10:07:54;;;;;;;12.00;2.88;;;16.00;77.30;;;;;;5001099;28;20042;-75
2023/10/04 10:10:22;;;;;;;8.48;1.65;;;16.00;77.80;;;;;;4999782;28;20137;-75
2023/10/04 10:12:50;;;;;;;11.38;2.60;;;16.00;77.60;;;;;;5008501;28;20050;-75
2023/10/04 10:15:18;;;;;;;11.40;3.03;;;16.00;77.70;;;;;;5019760;28;20524;-74
2023/10/04 10:17:47;;;;;;;12.93;2.63;;;16.10;77.60;;;;;;5003809;28;20766;-74
2023/10/04 10:20:16;;;;;;;12.60;2.47;;;16.10;76.60;;;;;;5015497;28;20081;-75
2023/10/04 10:23:13;;;;;;;11.70;2.47;;;16.20;75.70;;;;;;5004382;28;20057;-75
2023/10/04 10:25:41;;;;;;;8.88;1.52;;;16.20;75.40;;;;;;5015181;28;20616;-74
2023/10/04 10:28:20;;;;;;;10.47;2.63;;;16.20;75.30;;;;;;5008551;28;20734;-75
2023/10/04 10:30:48;;;;;;;8.05;2.78;;;16.20;75.10;;;;;;5021241;28;20269;-74
2023/10/04 10:33:22;;;;;;;9.88;2.20;;;16.20;75.00;;;;;;5020565;28;20551;-73
2023/10/04 10:35:52;;;;;;;10.75;2.42;;;16.20;75.10;;;;;;5007184;28;20512;-74
2023/10/04 10:38:29;;;;;;;8.95;2.22;;;16.20;75.30;;;;;;5019056;28;20047;-72
2023/10/04 10:40:56;;;;;;;11.47;2.57;;;16.20;75.10;;;;;;5011431;28;20222;-73
2023/10/04 10:43:23;;;;;;;9.57;2.50;;;16.20;75.30;;;;;;5021217;28;20401;-73
2023/10/04 10:45:51;;;;;;;9.70;2.75;;;16.30;75.00;;;;;;5017799;28;20152;-74
2023/10/04 10:48:30;;;;;;;11.57;2.63;;;16.30;74.70;;;;;;5018119;28;20057;-74
2023/10/04 10:50:57;;;;;;;10.25;2.55;;;16.40;74.50;;;;;;5010098;28;20249;-74
2023/10/04 10:53:24;;;;;;;10.50;2.30;;;16.40;74.70;;;;;;4997216;28;20050;-74
2023/10/04 10:55:51;;;;;;;9.40;2.50;;;16.40;75.00;;;;;;5020802;28;20785;-74
2023/10/04 10:58:18;;;;;;;11.50;2.92;;;16.40;75.00;;;;;;5010376;28;20536;-75
2023/10/04 11:00:46;;;;;;;9.93;2.30;;;16.40;74.50;;;;;;4993687;28;20064;-75
2023/10/04 11:03:13;;;;;;;12.55;2.30;;;16.40;74.60;;;;;;4997435;28;20065;-74
2023/10/04 11:05:41;;;;;;;12.07;3.07;;;16.40;75.00;;;;;;5003623;28;20461;-74
2023/10/04 11:08:12;;;;;;;6.35;1.92;;;16.40;74.00;;;;;;5010721;28;20357;-74
2023/10/04 11:10:40;;;;;;;11.30;3.00;;;16.40;73.90;;;;;;5019988;28;20065;-75
2023/10/04 11:13:09;;;;;;;10.50;3.03;;;16.40;74.30;;;;;;5001884;28;20086;-75
2023/10/04 11:15:36;;;;;;;10.40;2.83;;;16.40;74.40;;;;;;5017014;28;20081;-75
2023/10/04 11:18:05;;;;;;;12.23;3.07;;;16.40;74.80;;;;;;4998828;28;20054;-75
2023/10/04 11:20:36;;;;;;;9.63;2.33;;;16.40;74.70;;;;;;5011134;28;20859;-75
2023/10/04 11:23:05;;;;;;;12.93;3.55;;;16.40;74.70;;;;;;5018930;28;20562;-75
2023/10/04 11:25:32;;;;;;;12.68;2.90;;;16.40;74.70;;;;;;5017886;28;20114;-75
2023/10/04 11:28:00;;;;;;;9.18;2.47;;;16.30;75.20;;;;;;5004225;28;20051;-75
2023/10/04 11:30:33;;;;;;;12.93;3.20;;;16.40;75.50;;;;;;5022024;28;20579;-75
2023/10/04 11:33:00;;;;;;;10.85;2.80;;;16.40;75.70;;;;;;5022452;28;20288;-74
2023/10/04 11:35:34;;;;;;;8.65;2.00;;;16.40;75.50;;;;;;5011108;28;20058;-74
2023/10/04 11:38:05;;;;;;;11.68;2.97;;;16.40;75.50;;;;;;5016642;28;20050;-76
2023/10/04 11:40:34;;;;;;;9.18;2.50;;;16.40;75.00;;;;;;5015828;28;20065;-75
2023/10/04 11:43:03;;;;;;;9.67;2.03;;;16.40;74.50;;;;;;5002442;28;20057;-75
2023/10/04 11:45:31;;;;;;;10.88;2.28;;;16.40;74.40;;;;;;5022984;28;20558;-75
2023/10/04 11:48:00;;;;;;;9.52;2.20;;;16.40;74.50;;;;;;4997994;28;20645;-74
2023/10/04 11:50:44;;;;;;;9.15;2.17;;;16.40;75.10;;;;;;4997653;28;20165;-75
2023/10/04 11:53:12;;;;;;;10.65;2.03;;;16.40;75.20;;;;;;4982172;28;20043;-75
2023/10/04 11:55:41;;;;;;;8.47;2.60;;;16.40;75.30;;;;;;5001887;28;20050;-75
2023/10/04 11:58:10;;;;;;;10.32;2.67;;;16.40;75.20;;;;;;5002054;28;20269;-75
2023/10/04 12:00:37;;;;;;;11.70;2.60;;;16.40;74.90;;;;;;5018689;28;20050;-75
2023/10/04 12:03:06;;;;;;;9.82;2.78;;;16.40;75.00;;;;;;4992151;28;20509;-75
2023/10/04 12:05:32;;;;;;;12.32;2.78;;;16.40;75.30;;;;;;5015040;28;20050;-75
2023/10/04 12:08:01;;;;;;;11.90;2.23;;;16.40;75.10;;;;;;5015029;28;20054;-74
2023/10/04 12:10:28;;;;;;;13.00;2.50;;;16.40;74.40;;;;;;5012533;28;20655;-75
2023/10/04 12:12:57;;;;;;;10.38;2.10;;;16.40;74.80;;;;;;5003593;28;20046;-75
2023/10/04 12:15:25;;;;;;;11.95;2.47;;;16.40;75.30;;;;;;5023101;28;20094;-75
2023/10/04 12:17:52;;;;;;;10.40;2.90;;;16.30;75.40;;;;;;5020077;28;20049;-74
2023/10/04 12:20:20;;;;;;;8.83;2.50;;;16.40;75.50;;;;;;5003356;28;20073;-74
2023/10/04 12:22:48;;;;;;;7.88;2.15;;;16.40;75.20;;;;;;5017296;28;20268;-74
2023/10/04 12:25:15;;;;;;;9.95;3.00;;;16.40;75.50;;;;;;5018299;28;20525;-74
2023/10/04 12:27:43;;;;;;;14.20;2.95;;;16.40;75.50;;;;;;5024424;28;20375;-73
2023/10/04 12:30:15;;;;;;;10.88;2.88;;;16.30;76.00;;;;;;5020985;28;20058;-75
2023/10/04 12:32:43;;;;;;;9.53;2.70;;;16.40;76.10;;;;;;4999841;28;20462;-74
2023/10/04 12:35:13;;;;;;;10.18;2.47;;;16.40;76.30;;;;;;4993270;28;20744;-74
2023/10/04 12:37:40;;;;;;;9.63;2.50;;;16.40;76.70;;;;;;5012618;28;20623;-75
2023/10/04 12:40:16;;;;;;;13.13;2.80;;;16.40;76.10;;;;;;5002512;28;20053;-74
2023/10/04 12:42:43;;;;;;;9.15;2.60;;;16.40;76.20;;;;;;5000816;28;20149;-75
2023/10/04 12:45:15;;;;;;;10.23;2.73;;;16.40;76.10;;;;;;4990957;28;20136;-74
2023/10/04 12:47:42;;;;;;;8.73;2.45;;;16.40;76.10;;;;;;5017820;28;20274;-74
2023/10/04 12:50:13;;;;;;;9.75;2.63;;;16.40;76.00;;;;;;5009944;28;20128;-74
2023/10/04 12:52:40;;;;;;;9.88;1.98;;;16.40;75.50;;;;;;5005254;28;20084;-74